createdAt,value
2022-09-20T00:01:33.161Z,39568.97
2022-09-20T00:04:06.964Z,39586.94
2022-09-20T00:06:35.208Z,39557.00
2022-09-20T00:09:03.492Z,39541.06
2022-09-20T00:11:34.934Z,39582.94
2022-09-20T00:14:06.112Z,39594.91
2022-09-20T00:16:38.169Z,39582.94
2022-09-20T00:19:06.703Z,39624.81
2022-09-20T00:21:36.462Z,39612.84
2022-09-20T00:24:04.629Z,39555.03
2022-09-20T00:26:39.804Z,39395.50
2022-09-20T00:29:07.994Z,39385.53
2022-09-20T00:31:37.185Z,39395.50
2022-09-20T00:34:23.180Z,39377.56
2022-09-20T00:36:50.568Z,39351.63
2022-09-20T00:39:18.025Z,39341.66
2022-09-20T00:41:47.935Z,39385.53
2022-09-20T00:44:43.984Z,39347.66
2022-09-20T00:47:30.134Z,39335.69
2022-09-20T00:50:07.625Z,39385.53
2022-09-20T00:52:37.546Z,39359.59
2022-09-20T00:55:11.515Z,39317.72
2022-09-20T00:57:40.312Z,39301.78
2022-09-20T01:00:11.601Z,39311.75
2022-09-20T01:02:48.390Z,39351.63
2022-09-20T01:05:17.682Z,39295.81
2022-09-20T01:07:48.610Z,39379.56
2022-09-20T01:10:16.197Z,39363.59
2022-09-20T01:12:47.434Z,39429.41
2022-09-20T01:15:15.819Z,39489.22
2022-09-20T01:17:53.335Z,39537.06
2022-09-20T01:20:28.076Z,39582.94
2022-09-20T01:23:23.195Z,39578.94
2022-09-20T01:26:14.838Z,39644.75
2022-09-20T01:28:47.609Z,39626.81
2022-09-20T01:31:30.872Z,39594.91
2022-09-20T01:34:00.029Z,39588.91
2022-09-20T01:36:37.257Z,39688.63
2022-09-20T01:39:50.140Z,39533.09
2022-09-20T01:42:17.757Z,39570.97
2022-09-20T01:45:04.847Z,39495.19
2022-09-20T01:47:43.902Z,39547.03
2022-09-20T01:50:11.201Z,39588.91
2022-09-20T01:53:02.868Z,39549.03
2022-09-20T01:55:42.217Z,39459.31
2022-09-20T01:58:39.900Z,39435.38
2022-09-20T02:02:05.003Z,39313.75
2022-09-20T02:04:53.859Z,39277.84
2022-09-20T02:08:05.527Z,39196.09
2022-09-20T02:10:42.163Z,39301.78
2022-09-20T02:13:23.928Z,39253.94
2022-09-20T02:16:18.498Z,39237.97
2022-09-20T02:18:57.044Z,39315.75
2022-09-20T02:21:46.378Z,39345.66
2022-09-20T02:24:58.287Z,39399.50
2022-09-20T02:27:36.850Z,39323.72
2022-09-20T02:30:23.088Z,39198.09
2022-09-20T02:33:10.457Z,39176.16
2022-09-20T02:35:45.475Z,39122.34
2022-09-20T02:38:28.100Z,39076.47
2022-09-20T02:41:02.007Z,39054.53
2022-09-20T02:43:36.982Z,39072.50
2022-09-20T02:46:09.809Z,39040.59
2022-09-20T02:49:09.670Z,38966.81
2022-09-20T02:51:46.758Z,38976.78
2022-09-20T02:54:35.899Z,38920.97
2022-09-20T02:57:47.028Z,38916.97
2022-09-20T03:00:25.949Z,38903.03
2022-09-20T03:03:03.711Z,38867.13
2022-09-20T03:05:44.509Z,38887.06
2022-09-20T03:08:31.524Z,38837.22
2022-09-20T03:11:23.351Z,38815.31
2022-09-20T03:13:59.942Z,38909.00
2022-09-20T03:16:57.928Z,39160.22
2022-09-20T03:19:39.460Z,39186.13
2022-09-20T03:22:19.598Z,39235.97
2022-09-20T03:24:59.638Z,39291.81
2022-09-20T03:27:39.961Z,39499.19
2022-09-20T03:30:23.993Z,39738.47
2022-09-20T03:33:03.529Z,40021.66
2022-09-20T03:35:56.433Z,40145.31
2022-09-20T03:38:56.461Z,40310.88
2022-09-20T03:42:01.629Z,40634.00
2022-09-20T03:44:45.693Z,41296.31
2022-09-20T03:47:48.079Z,41206.53
2022-09-20T03:50:22.111Z,41218.50
2022-09-20T03:53:03.051Z,41200.53
2022-09-20T03:55:47.181Z,41549.69
2022-09-20T03:58:45.004Z,41725.28
2022-09-20T04:01:33.748Z,41882.91
2022-09-20T04:04:12.509Z,42122.38
2022-09-20T04:07:01.789Z,42244.13
2022-09-20T04:09:47.713Z,42535.50
2022-09-20T04:12:53.573Z,42647.25
2022-09-20T04:15:44.402Z,42918.72
2022-09-20T04:18:33.637Z,43290.00
2022-09-20T04:21:07.999Z,43292.00
2022-09-20T04:24:02.133Z,43781.13
2022-09-20T04:26:32.270Z,44452.06
2022-09-20T04:29:23.201Z,44661.75
2022-09-20T04:31:59.211Z,45149.06
2022-09-20T04:34:57.817Z,45346.81
2022-09-20T04:37:33.124Z,46105.97
2022-09-20T04:40:33.427Z,45930.16
2022-09-20T04:43:17.490Z,47185.03
2022-09-20T04:45:51.563Z,47644.75
2022-09-20T04:48:45.849Z,48092.53
2022-09-20T04:51:16.096Z,49170.22
2022-09-20T04:54:12.149Z,49296.22
2022-09-20T04:57:11.205Z,49388.22
2022-09-20T05:00:12.234Z,50154.25
2022-09-20T05:02:53.864Z,51390.72
2022-09-20T05:05:59.125Z,51250.63
2022-09-20T05:08:53.254Z,51917.03
2022-09-20T05:11:34.455Z,52405.41
2022-09-20T05:14:19.597Z,52801.78
2022-09-20T05:17:08.527Z,53542.56
2022-09-20T05:20:13.744Z,53826.91
2022-09-20T05:23:10.955Z,54852.38
2022-09-20T05:25:57.135Z,55365.22
2022-09-20T05:28:38.709Z,55878.13
2022-09-20T05:31:15.566Z,56647.66
2022-09-20T05:33:57.670Z,56647.66
2022-09-20T05:36:59.593Z,57160.78
2022-09-20T05:39:43.565Z,57930.59
2022-09-20T05:42:20.564Z,57417.38
2022-09-20T05:45:08.175Z,57417.38
2022-09-20T05:48:05.739Z,56904.22
2022-09-20T05:51:09.829Z,56904.22
2022-09-20T05:53:59.004Z,57930.59
2022-09-20T05:56:37.900Z,58443.91
2022-09-20T05:59:36.228Z,58443.91
2022-09-20T06:02:41.437Z,59470.75
2022-09-20T06:05:24.408Z,60241.09
2022-09-20T06:08:16.119Z,59727.50
2022-09-20T06:11:18.499Z,59727.50
2022-09-20T06:14:11.214Z,59984.28
2022-09-20T06:17:16.199Z,59470.75
2022-09-20T06:20:13.209Z,59470.75
2022-09-20T06:22:47.216Z,60497.91
2022-09-20T06:25:31.280Z,58700.59
2022-09-20T06:28:13.262Z,53058.03
2022-09-20T06:30:51.949Z,51522.78
2022-09-20T06:33:25.788Z,50156.25
2022-09-20T06:35:59.044Z,50742.41
2022-09-20T06:38:56.076Z,52597.59
2022-09-20T06:41:30.756Z,54852.38
2022-09-20T06:44:01.630Z,55108.78
2022-09-20T06:46:34.250Z,55878.13
2022-09-20T06:49:06.946Z,56391.13
2022-09-20T06:51:39.051Z,56647.66
2022-09-20T06:54:13.079Z,56647.66
2022-09-20T06:56:40.483Z,56904.22
2022-09-20T06:59:08.715Z,57417.38
2022-09-20T07:01:41.859Z,59727.50
2022-09-20T07:04:17.465Z,59727.50
2022-09-20T07:06:47.632Z,59214.00
2022-09-20T07:09:17.816Z,59727.50
2022-09-20T07:11:47.746Z,61011.59
2022-09-20T07:14:19.224Z,61782.28
2022-09-20T07:16:46.667Z,62296.19
2022-09-20T07:19:16.490Z,62810.16
2022-09-20T07:21:44.399Z,63324.19
2022-09-20T07:24:15.193Z,63067.16
2022-09-20T07:27:00.104Z,63067.16
2022-09-20T07:29:31.555Z,63067.16
2022-09-20T07:31:58.991Z,63067.16
2022-09-20T07:34:27.263Z,64095.41
2022-09-20T07:36:57.352Z,64095.41
2022-09-20T07:39:24.765Z,65123.97
2022-09-20T07:41:53.161Z,65638.38
2022-09-20T07:44:27.759Z,66152.84
2022-09-20T07:46:58.149Z,66152.84
2022-09-20T07:49:29.956Z,66152.84
2022-09-20T07:51:58.427Z,66152.84
2022-09-20T07:54:32.103Z,65895.59
2022-09-20T07:57:01.749Z,65638.38
2022-09-20T07:59:29.420Z,65123.97
2022-09-20T08:02:20.457Z,64609.66
2022-09-20T08:04:49.992Z,63067.16
2022-09-20T08:07:18.649Z,64866.81
2022-09-20T08:09:45.993Z,67696.72
2022-09-20T08:15:12.068Z,70786.59
2022-09-20T08:17:49.940Z,70528.97
2022-09-20T08:20:22.649Z,70786.59
2022-09-20T08:23:12.575Z,71044.19
2022-09-20T08:25:39.525Z,70786.59
2022-09-20T08:28:08.190Z,71044.19
2022-09-20T08:30:36.159Z,71044.19
2022-09-20T08:33:07.053Z,71817.16
2022-09-20T08:35:38.497Z,70786.59
2022-09-20T08:41:04.809Z,59984.28
2022-09-20T08:43:50.853Z,56391.13
2022-09-20T08:46:23.645Z,52801.78
2022-09-20T08:48:52.471Z,49058.25
2022-09-20T08:51:23.221Z,47432.88
2022-09-20T08:53:56.240Z,45472.66
2022-09-20T08:56:36.342Z,43465.69
2022-09-20T08:59:14.423Z,42407.75
2022-09-20T09:01:46.962Z,42890.78
2022-09-20T09:04:18.500Z,43904.94
2022-09-20T09:06:49.836Z,46349.72
2022-09-20T09:09:27.695Z,51290.66
2022-09-20T09:11:57.034Z,57417.38
2022-09-20T09:14:51.623Z,59984.28
2022-09-20T09:17:27.946Z,62810.16
2022-09-20T09:20:14.408Z,65895.59
2022-09-20T09:22:45.265Z,68726.38
2022-09-20T09:25:32.188Z,69241.31
2022-09-20T09:28:03.220Z,70786.59
2022-09-20T09:30:30.783Z,73621.41
2022-09-20T09:33:32.116Z,73879.22
2022-09-20T09:36:15.796Z,70013.84
2022-09-20T09:38:46.204Z,66410.09
2022-09-20T09:41:26.664Z,72590.28
2022-09-20T09:44:02.997Z,70528.97
2022-09-20T09:46:35.339Z,70528.97
2022-09-20T09:49:15.803Z,65123.97
2022-09-20T09:52:14.116Z,62296.19
2022-09-20T09:54:50.609Z,57930.59
2022-09-20T09:57:33.863Z,54339.59
2022-09-20T10:00:21.411Z,54339.59
2022-09-20T10:03:14.972Z,52923.91
2022-09-20T10:06:10.483Z,48420.41
2022-09-20T10:09:05.955Z,45244.94
2022-09-20T10:11:42.441Z,44178.47
2022-09-20T10:14:33.934Z,44977.31
2022-09-20T10:17:19.666Z,45151.06
2022-09-20T10:20:05.911Z,45610.50
2022-09-20T10:23:29.856Z,44458.03
2022-09-20T10:25:56.255Z,42693.16
2022-09-20T10:28:35.248Z,42842.88
2022-09-20T10:31:35.688Z,43198.19
2022-09-20T10:34:12.238Z,42930.69
2022-09-20T10:36:53.678Z,42643.28
2022-09-20T10:39:30.428Z,42401.78
2022-09-20T10:42:35.246Z,42587.38
2022-09-20T10:45:43.990Z,43361.88
2022-09-20T10:48:18.472Z,44446.06
2022-09-20T10:50:58.761Z,45139.09
2022-09-20T10:53:49.206Z,45708.38
2022-09-20T10:56:30.920Z,46705.41
2022-09-20T10:59:20.839Z,47484.84
2022-09-20T11:02:13.662Z,48408.41
2022-09-20T11:05:07.350Z,49676.22
2022-09-20T11:07:43.828Z,50698.41
2022-09-20T11:10:29.515Z,52073.16
2022-09-20T11:13:11.477Z,53314.31
2022-09-20T11:15:45.855Z,52353.38
2022-09-20T11:18:45.084Z,52425.44
2022-09-20T11:21:22.844Z,53026.00
2022-09-20T11:24:27.999Z,53570.59
2022-09-20T11:27:21.088Z,54339.59
2022-09-20T11:30:08.395Z,54595.97
2022-09-20T11:32:44.525Z,55621.66
2022-09-20T11:35:14.807Z,55878.13
2022-09-20T11:37:57.305Z,56391.13
2022-09-20T11:40:34.310Z,57160.78
2022-09-20T11:43:06.459Z,58187.25
2022-09-20T11:45:45.404Z,57673.97
2022-09-20T11:48:26.481Z,57673.97
2022-09-20T11:51:20.466Z,58187.25
2022-09-20T11:54:02.263Z,59214.00
2022-09-20T11:56:32.366Z,59470.75
2022-09-20T11:59:07.327Z,59984.28
2022-09-20T12:01:38.825Z,60754.75
2022-09-20T12:04:33.812Z,61268.47
2022-09-20T12:07:19.858Z,61525.38
2022-09-20T12:09:54.147Z,62296.19
2022-09-20T12:12:37.645Z,62553.16
2022-09-20T12:15:07.877Z,64095.41
2022-09-20T12:17:47.504Z,62810.16
2022-09-20T12:20:34.826Z,52951.94
2022-09-20T12:23:42.357Z,44887.44
2022-09-20T12:26:21.869Z,44404.13
2022-09-20T12:29:00.377Z,44248.38
2022-09-20T12:31:33.634Z,43577.50
2022-09-20T12:34:01.112Z,42571.41
2022-09-20T12:36:37.211Z,43058.44
2022-09-20T12:39:17.613Z,42715.13
2022-09-20T12:41:54.428Z,42806.94
2022-09-20T12:44:41.926Z,42260.06
2022-09-20T12:47:12.413Z,41719.28
2022-09-20T12:50:05.452Z,41402.03
2022-09-20T12:52:50.655Z,41441.94
2022-09-20T12:55:27.277Z,41126.72
2022-09-20T12:58:02.191Z,41234.47
2022-09-20T13:00:38.209Z,41112.75
2022-09-20T13:03:15.044Z,41021.00
2022-09-20T13:05:47.163Z,40803.53
2022-09-20T13:08:30.120Z,40655.94
2022-09-20T13:11:06.940Z,40679.88
2022-09-20T13:13:55.747Z,40991.06
2022-09-20T13:16:32.527Z,40777.63
2022-09-20T13:19:09.944Z,40801.56
2022-09-20T13:21:41.700Z,40400.63
2022-09-20T13:24:18.364Z,40045.59
2022-09-20T13:26:49.005Z,40117.41
2022-09-20T13:29:29.472Z,40308.88
2022-09-20T13:32:18.872Z,40643.97
2022-09-20T13:34:46.705Z,41619.53
2022-09-20T13:37:21.806Z,42739.06
2022-09-20T13:39:55.622Z,42972.63
2022-09-20T13:42:29.974Z,41833.03
2022-09-20T13:44:58.841Z,40025.66
2022-09-20T13:47:31.591Z,39503.19
2022-09-20T13:50:15.759Z,39299.78
2022-09-20T13:52:48.831Z,39176.16
2022-09-20T13:55:36.124Z,39056.53
2022-09-20T13:58:17.293Z,38944.88
2022-09-20T14:00:53.090Z,38869.13
2022-09-20T14:03:22.103Z,38849.19
2022-09-20T14:06:02.864Z,38821.28
2022-09-20T14:08:36.525Z,38789.38
2022-09-20T14:11:21.442Z,38743.53
2022-09-20T14:14:12.368Z,38727.59
2022-09-20T14:16:49.151Z,38715.63
2022-09-20T14:19:20.144Z,38741.53
2022-09-20T14:21:48.947Z,38920.97
2022-09-20T14:24:17.536Z,38799.34
2022-09-20T14:27:06.007Z,38665.78
2022-09-20T14:29:44.072Z,38849.19
2022-09-20T14:32:17.645Z,38968.81
2022-09-20T14:35:00.315Z,38695.69
2022-09-20T14:37:42.616Z,38649.84
2022-09-20T14:40:18.797Z,38502.31
2022-09-20T14:42:48.684Z,38450.47
2022-09-20T14:45:39.979Z,38462.44
2022-09-20T14:48:11.053Z,38582.06
2022-09-20T14:50:44.958Z,38725.59
2022-09-20T14:53:26.749Z,40007.72
2022-09-20T14:56:06.335Z,42377.81
2022-09-20T14:59:19.486Z,44743.63
2022-09-20T15:02:11.474Z,46405.66
2022-09-20T15:04:40.581Z,46545.53
2022-09-20T15:07:13.128Z,45258.94
2022-09-20T15:09:40.725Z,44384.16
2022-09-20T15:12:22.645Z,43849.03
2022-09-20T15:14:50.153Z,43431.75
2022-09-20T15:17:20.858Z,43317.97
2022-09-20T15:19:51.854Z,43234.13
2022-09-20T15:22:19.747Z,43234.13
2022-09-20T15:24:47.696Z,43671.31
2022-09-20T15:27:18.674Z,43861.00
2022-09-20T15:29:59.776Z,43960.84
2022-09-20T15:32:27.824Z,44082.63
2022-09-20T15:34:56.061Z,44258.34
2022-09-20T15:37:24.876Z,44561.88
2022-09-20T15:39:53.724Z,44505.97
2022-09-20T15:42:22.022Z,44825.50
2022-09-20T15:44:52.022Z,44837.50
2022-09-20T15:47:22.510Z,44915.38
2022-09-20T15:49:53.138Z,44981.28
2022-09-20T15:52:24.690Z,44789.56
2022-09-20T15:55:00.250Z,45171.03
2022-09-20T15:57:28.202Z,45456.69
2022-09-20T15:59:55.700Z,46321.75
2022-09-20T16:02:23.500Z,46827.31
2022-09-20T16:04:55.658Z,46847.28
2022-09-20T16:07:26.866Z,46687.41
2022-09-20T16:09:56.127Z,46903.25
2022-09-20T16:12:25.214Z,46679.44
2022-09-20T16:14:52.644Z,49314.22
2022-09-20T16:17:40.108Z,67696.72
2022-09-20T16:20:08.093Z,69241.31
2022-09-20T16:22:38.309Z,63581.25
2022-09-20T16:25:06.410Z,56904.22
2022-09-20T16:27:34.859Z,49964.22
2022-09-20T16:30:03.154Z,44074.66
2022-09-20T16:32:30.736Z,41400.06
2022-09-20T16:35:01.121Z,40151.31
2022-09-20T16:37:32.742Z,39826.22
2022-09-20T16:40:00.531Z,38966.81
2022-09-20T16:42:27.922Z,38653.81
2022-09-20T16:44:57.203Z,38470.41
2022-09-20T16:47:26.207Z,38380.72
2022-09-20T16:49:54.359Z,38304.97
2022-09-20T16:52:21.891Z,38302.97
2022-09-20T16:54:49.861Z,38213.28
2022-09-20T16:57:17.308Z,38217.25
2022-09-20T16:59:46.633Z,38215.28
2022-09-20T17:02:14.135Z,38169.44
2022-09-20T17:04:43.861Z,38185.38
2022-09-20T17:07:11.240Z,38131.56
2022-09-20T17:09:39.926Z,38161.44
2022-09-20T17:12:09.628Z,38159.47
2022-09-20T17:14:37.300Z,38179.38
2022-09-20T17:17:04.781Z,38187.38
2022-09-20T17:19:34.382Z,38153.47
2022-09-20T17:22:04.133Z,38171.41
2022-09-20T17:24:34.319Z,38183.38
2022-09-20T17:27:54.994Z,38197.34
2022-09-20T17:30:23.485Z,38203.31
2022-09-20T17:32:53.686Z,38201.31
2022-09-20T17:35:23.376Z,38197.34
2022-09-20T17:37:50.841Z,38239.19
2022-09-20T17:40:18.431Z,38362.78
2022-09-20T17:42:46.827Z,38326.91
2022-09-20T17:45:14.409Z,38306.97
2022-09-20T17:47:42.004Z,38344.84
2022-09-20T17:50:14.687Z,38372.75
2022-09-20T17:52:42.322Z,38364.78
2022-09-20T17:55:13.843Z,38376.72
2022-09-20T17:57:43.296Z,38336.88
2022-09-20T18:00:11.388Z,38386.69
2022-09-20T18:02:42.722Z,38392.69
2022-09-20T18:05:10.255Z,38382.72
2022-09-20T18:07:37.602Z,38432.53
2022-09-20T18:10:11.051Z,38432.53
2022-09-20T18:12:38.397Z,38512.28
2022-09-20T18:15:08.985Z,38516.28
2022-09-20T18:17:39.348Z,38518.25
2022-09-20T18:20:07.392Z,38478.41
2022-09-20T18:22:39.078Z,38482.38
2022-09-20T18:25:07.349Z,38731.56
2022-09-20T18:27:35.846Z,38843.22
2022-09-20T18:30:04.792Z,38893.06
2022-09-20T18:32:32.221Z,38938.91
2022-09-20T18:34:59.640Z,38942.91
2022-09-20T18:37:26.990Z,38984.75
2022-09-20T18:39:54.724Z,38914.97
2022-09-20T18:42:22.488Z,38932.94
2022-09-20T18:44:50.514Z,38996.72
2022-09-20T18:47:19.382Z,38934.91
2022-09-20T18:49:46.826Z,38962.84
2022-09-20T18:52:16.316Z,38956.84
2022-09-20T18:54:43.915Z,38905.00
2022-09-20T18:57:12.073Z,38887.06
2022-09-20T18:59:40.595Z,38909.00
2022-09-20T19:02:38.502Z,38911.00
2022-09-20T19:05:21.337Z,38966.81
2022-09-20T19:07:59.668Z,38962.84
2022-09-20T19:10:41.221Z,38936.91
2022-09-20T19:13:27.352Z,38960.84
2022-09-20T19:15:54.721Z,38984.75
2022-09-20T19:18:28.192Z,39012.69
2022-09-20T19:21:16.529Z,38914.97
2022-09-20T19:24:16.564Z,38843.22
2022-09-20T19:26:49.392Z,38914.97
2022-09-20T19:29:27.657Z,38877.09
2022-09-20T19:31:57.811Z,38835.25
2022-09-20T19:34:28.159Z,38859.16
2022-09-20T19:37:24.708Z,38825.28
2022-09-20T19:40:09.141Z,38809.31
2022-09-20T19:42:42.508Z,38761.47
2022-09-20T19:45:20.294Z,38755.50
2022-09-20T19:48:09.561Z,38735.56
2022-09-20T19:50:45.545Z,38689.69
2022-09-20T19:53:18.040Z,38689.69
2022-09-20T19:55:56.712Z,38613.94
2022-09-20T19:58:26.931Z,38633.88
2022-09-20T20:00:58.208Z,38667.78
2022-09-20T20:03:27.523Z,38588.03
2022-09-20T20:06:07.103Z,38586.03
2022-09-20T20:08:51.184Z,38596.00
2022-09-20T20:11:53.078Z,38603.97
2022-09-20T20:14:29.427Z,38542.19
2022-09-20T20:17:00.506Z,38544.19
2022-09-20T20:19:52.998Z,38516.28
2022-09-20T20:22:45.860Z,38530.22
2022-09-20T20:26:00.207Z,38496.34
2022-09-20T20:28:27.880Z,38536.19
2022-09-20T20:31:00.826Z,38514.28
2022-09-20T20:33:29.297Z,38522.25
2022-09-20T20:36:02.122Z,38484.38
2022-09-20T20:38:36.538Z,38496.34
2022-09-20T20:41:05.845Z,38476.41
2022-09-20T20:43:40.909Z,38504.31
2022-09-20T20:46:10.749Z,38482.38
2022-09-20T20:48:38.428Z,38478.41
2022-09-20T20:51:14.434Z,38462.44
2022-09-20T20:53:47.831Z,38426.56
2022-09-20T20:56:27.577Z,38432.53
2022-09-20T20:59:00.881Z,38402.66
2022-09-20T21:01:37.077Z,38418.59
2022-09-20T21:04:05.301Z,38422.56
2022-09-20T21:06:38.682Z,38436.53
2022-09-20T21:09:10.129Z,38436.53
2022-09-20T21:11:43.701Z,38378.72
2022-09-20T21:14:16.984Z,38412.59
2022-09-20T21:16:45.526Z,38414.59
2022-09-20T21:19:15.581Z,38418.59
2022-09-20T21:21:45.270Z,38410.63
2022-09-20T21:24:17.287Z,38428.56
2022-09-20T21:26:46.575Z,38390.69
2022-09-20T21:29:15.652Z,38450.47
2022-09-20T21:31:45.710Z,38418.59
2022-09-20T21:34:15.427Z,38390.69
2022-09-20T21:36:44.777Z,38382.72
2022-09-20T21:39:12.834Z,38378.72
2022-09-20T21:41:40.550Z,38382.72
2022-09-20T21:44:12.110Z,38370.75
2022-09-20T21:46:41.544Z,38398.66
2022-09-20T21:49:11.676Z,38356.78
2022-09-20T21:51:42.201Z,38366.75
2022-09-20T21:54:09.980Z,38322.91
2022-09-20T21:56:40.389Z,38314.94
2022-09-20T21:59:09.943Z,38348.81
2022-09-20T22:01:41.120Z,38336.88
2022-09-20T22:04:12.678Z,38318.91
2022-09-20T22:06:43.983Z,38322.91
2022-09-20T22:09:18.020Z,38330.88
2022-09-20T22:11:48.906Z,38322.91
2022-09-20T22:14:19.227Z,38324.91
2022-09-20T22:16:51.383Z,38289.03
2022-09-20T22:19:19.416Z,38304.97
2022-09-20T22:21:48.765Z,38302.97
2022-09-20T22:24:21.728Z,38300.97
2022-09-20T22:26:50.923Z,38287.03
2022-09-20T22:29:20.256Z,38281.06
2022-09-20T22:31:49.723Z,38295.00
2022-09-20T22:34:20.328Z,38308.97
2022-09-20T22:36:52.656Z,38299.00
2022-09-20T22:39:22.399Z,38314.94
2022-09-20T22:41:51.105Z,38289.03
2022-09-20T22:44:18.653Z,38289.03
2022-09-20T22:46:48.704Z,38316.94
2022-09-20T22:49:16.288Z,38295.00
2022-09-20T22:51:43.700Z,38302.97
2022-09-20T22:54:12.161Z,38285.03
2022-09-20T22:56:41.449Z,38277.06
2022-09-20T22:59:14.231Z,38265.09
2022-09-20T23:01:46.397Z,38291.00
2022-09-20T23:04:18.959Z,38275.06
2022-09-20T23:06:58.283Z,38289.03
2022-09-20T23:09:28.014Z,38293.00
2022-09-20T23:11:55.686Z,38289.03
2022-09-20T23:14:23.431Z,38304.97
2022-09-20T23:16:50.936Z,38297.00
2022-09-20T23:19:21.060Z,38336.88
2022-09-20T23:21:48.591Z,38380.72
2022-09-20T23:24:16.715Z,38318.91
2022-09-20T23:26:44.743Z,38310.94
2022-09-20T23:29:15.010Z,38338.84
2022-09-20T23:31:47.139Z,38366.75
2022-09-20T23:34:17.906Z,38372.75
2022-09-20T23:36:46.046Z,38362.78
2022-09-20T23:39:13.952Z,38356.78
2022-09-20T23:41:44.857Z,38366.75
2022-09-20T23:44:15.834Z,38380.72
2022-09-20T23:46:43.311Z,38414.59
2022-09-20T23:49:12.851Z,38406.63
2022-09-20T23:51:40.298Z,38460.44
2022-09-20T23:54:07.966Z,38408.63
2022-09-20T23:56:36.505Z,38396.66
2022-09-20T23:59:12.585Z,38422.56
